sensor_id;sensor_type;location;lat;lon;timestamp;temperature;humidity
65470;DHT22;52067;50.710;14.492;2023-01-28T00:00:25;0.02;89.38
65470;DHT22;52067;50.710;14.492;2023-01-28T00:02:51;0.03;89.33
65470;DHT22;52067;50.710;14.492;2023-01-28T00:05:16;0.05;88.95
65470;DHT22;52067;50.710;14.492;2023-01-28T00:07:42;0.06;88.85
65470;DHT22;52067;50.710;14.492;2023-01-28T00:10:08;0.13;89.04
65470;DHT22;52067;50.710;14.492;2023-01-28T00:12:33;0.06;88.55
65470;DHT22;52067;50.710;14.492;2023-01-28T00:14:58;0.12;88.69
65470;DHT22;52067;50.710;14.492;2023-01-28T00:17:24;0.07;88.69
65470;DHT22;52067;50.710;14.492;2023-01-28T00:19:49;0.19;88.49
65470;DHT22;52067;50.710;14.492;2023-01-28T00:22:15;0.17;88.42
65470;DHT22;52067;50.710;14.492;2023-01-28T00:24:40;0.14;88.61
65470;DHT22;52067;50.710;14.492;2023-01-28T00:27:06;0.23;88.22
65470;DHT22;52067;50.710;14.492;2023-01-28T00:29:31;0.24;87.84
65470;DHT22;52067;50.710;14.492;2023-01-28T00:31:56;0.33;87.72
65470;DHT22;52067;50.710;14.492;2023-01-28T00:34:22;0.27;87.91
65470;DHT22;52067;50.710;14.492;2023-01-28T00:36:47;0.26;88.06
65470;DHT22;52067;50.710;14.492;2023-01-28T00:39:25;0.31;88.16
65470;DHT22;52067;50.710;14.492;2023-01-28T00:41:51;0.20;88.24
65470;DHT22;52067;50.710;14.492;2023-01-28T00:44:18;0.24;88.11
65470;DHT22;52067;50.710;14.492;2023-01-28T00:46:44;0.20;88.50
65470;DHT22;52067;50.710;14.492;2023-01-28T00:49:09;0.26;88.46
65470;DHT22;52067;50.710;14.492;2023-01-28T00:51:35;0.19;88.29
65470;DHT22;52067;50.710;14.492;2023-01-28T00:54:00;0.24;88.22
65470;DHT22;52067;50.710;14.492;2023-01-28T00:56:26;0.10;88.58
65470;DHT22;52067;50.710;14.492;2023-01-28T00:58:51;0.05;89.08
65470;DHT22;52067;50.710;14.492;2023-01-28T01:01:22;0.02;89.24
65470;DHT22;52067;50.710;14.492;2023-01-28T01:03:48;0.02;89.29
65470;DHT22;52067;50.710;14.492;2023-01-28T01:06:23;-0.01;89.58
65470;DHT22;52067;50.710;14.492;2023-01-28T01:08:49;0.01;89.50
65470;DHT22;52067;50.710;14.492;2023-01-28T01:11:15;0.02;89.37
65470;DHT22;52067;50.710;14.492;2023-01-28T01:13:42;-0.01;89.58
65470;DHT22;52067;50.710;14.492;2023-01-28T01:16:08;-0.02;89.70
65470;DHT22;52067;50.710;14.492;2023-01-28T01:18:35;0.05;89.41
65470;DHT22;52067;50.710;14.492;2023-01-28T01:21:01;0.05;89.46
65470;DHT22;52067;50.710;14.492;2023-01-28T01:23:28;0.07;89.29
65470;DHT22;52067;50.710;14.492;2023-01-28T01:25:54;0.10;89.00
65470;DHT22;52067;50.710;14.492;2023-01-28T01:28:20;0.17;88.56
65470;DHT22;52067;50.710;14.492;2023-01-28T01:30:47;0.20;88.40
65470;DHT22;52067;50.710;14.492;2023-01-28T01:33:13;0.22;87.90
65470;DHT22;52067;50.710;14.492;2023-01-28T01:35:38;0.31;87.85
65470;DHT22;52067;50.710;14.492;2023-01-28T01:38:04;0.31;87.78
65470;DHT22;52067;50.710;14.492;2023-01-28T01:40:30;0.36;87.53
65470;DHT22;52067;50.710;14.492;2023-01-28T01:42:55;0.34;87.13
65470;DHT22;52067;50.710;14.492;2023-01-28T01:45:21;0.41;86.98
65470;DHT22;52067;50.710;14.492;2023-01-28T01:48:05;0.34;87.06
65470;DHT22;52067;50.710;14.492;2023-01-28T01:50:35;0.33;87.12
65470;DHT22;52067;50.710;14.492;2023-01-28T01:53:13;0.33;86.92
65470;DHT22;52067;50.710;14.492;2023-01-28T01:55:42;0.33;87.24
65470;DHT22;52067;50.710;14.492;2023-01-28T01:58:11;0.43;87.08
65470;DHT22;52067;50.710;14.492;2023-01-28T02:00:38;0.46;86.79
65470;DHT22;52067;50.710;14.492;2023-01-28T02:03:04;0.44;86.76
65470;DHT22;52067;50.710;14.492;2023-01-28T02:05:30;0.60;86.50
65470;DHT22;52067;50.710;14.492;2023-01-28T02:07:57;0.75;85.96
65470;DHT22;52067;50.710;14.492;2023-01-28T02:10:44;0.84;85.34
65470;DHT22;52067;50.710;14.492;2023-01-28T02:13:10;0.78;84.97
65470;DHT22;52067;50.710;14.492;2023-01-28T02:15:36;0.81;85.59
65470;DHT22;52067;50.710;14.492;2023-01-28T02:18:01;0.77;85.30
65470;DHT22;52067;50.710;14.492;2023-01-28T02:23:54;0.61;85.47
65470;DHT22;52067;50.710;14.492;2023-01-28T02:29:26;0.60;86.17
65470;DHT22;52067;50.710;14.492;2023-01-28T02:32:14;0.57;85.82
65470;DHT22;52067;50.710;14.492;2023-01-28T02:34:49;0.60;86.15
65470;DHT22;52067;50.710;14.492;2023-01-28T02:39:53;0.50;86.10
65470;DHT22;52067;50.710;14.492;2023-01-28T02:42:24;0.47;86.57
65470;DHT22;52067;50.710;14.492;2023-01-28T02:44:51;0.46;86.57
65470;DHT22;52067;50.710;14.492;2023-01-28T02:47:17;0.51;86.42
65470;DHT22;52067;50.710;14.492;2023-01-28T02:50:03;0.41;86.75
65470;DHT22;52067;50.710;14.492;2023-01-28T02:52:55;0.53;86.27
65470;DHT22;52067;50.710;14.492;2023-01-28T02:55:50;0.40;86.70
65470;DHT22;52067;50.710;14.492;2023-01-28T03:04:34;0.44;86.44
65470;DHT22;52067;50.710;14.492;2023-01-28T03:06:44;0.37;86.69
65470;DHT22;52067;50.710;14.492;2023-01-28T03:09:11;0.43;86.73
65470;DHT22;52067;50.710;14.492;2023-01-28T03:12:17;0.41;86.40
65470;DHT22;52067;50.710;14.492;2023-01-28T03:15:18;0.29;87.45
65470;DHT22;52067;50.710;14.492;2023-01-28T03:18:11;0.24;87.57
65470;DHT22;52067;50.710;14.492;2023-01-28T03:24:23;0.46;87.01
65470;DHT22;52067;50.710;14.492;2023-01-28T03:30:06;0.31;87.07
65470;DHT22;52067;50.710;14.492;2023-01-28T03:32:52;0.31;86.70
65470;DHT22;52067;50.710;14.492;2023-01-28T03:35:37;0.36;86.98
65470;DHT22;52067;50.710;14.492;2023-01-28T03:38:22;0.33;86.63
65470;DHT22;52067;50.710;14.492;2023-01-28T03:40:56;0.39;86.74
65470;DHT22;52067;50.710;14.492;2023-01-28T03:43:22;0.29;86.91
65470;DHT22;52067;50.710;14.492;2023-01-28T03:45:48;0.30;86.69
65470;DHT22;52067;50.710;14.492;2023-01-28T03:48:20;0.26;86.99
65470;DHT22;52067;50.710;14.492;2023-01-28T03:50:47;0.29;87.20
65470;DHT22;52067;50.710;14.492;2023-01-28T03:53:16;0.29;87.20
65470;DHT22;52067;50.710;14.492;2023-01-28T03:55:43;0.34;86.62
65470;DHT22;52067;50.710;14.492;2023-01-28T03:58:09;0.36;86.48
65470;DHT22;52067;50.710;14.492;2023-01-28T04:00:35;0.30;86.22
65470;DHT22;52067;50.710;14.492;2023-01-28T04:03:12;0.30;86.60
65470;DHT22;52067;50.710;14.492;2023-01-28T04:05:42;0.33;86.48
65470;DHT22;52067;50.710;14.492;2023-01-28T04:08:08;0.43;86.31
65470;DHT22;52067;50.710;14.492;2023-01-28T04:10:34;0.43;85.89
65470;DHT22;52067;50.710;14.492;2023-01-28T04:12:59;0.27;85.73
65470;DHT22;52067;50.710;14.492;2023-01-28T04:15:24;0.30;86.44
65470;DHT22;52067;50.710;14.492;2023-01-28T04:17:50;0.19;86.05
65470;DHT22;52067;50.710;14.492;2023-01-28T04:20:16;0.26;85.49
65470;DHT22;52067;50.710;14.492;2023-01-28T04:22:41;0.12;86.08
65470;DHT22;52067;50.710;14.492;2023-01-28T04:25:08;0.09;86.54
65470;DHT22;52067;50.710;14.492;2023-01-28T04:27:33;0.12;86.51
65470;DHT22;52067;50.710;14.492;2023-01-28T04:29:58;0.14;86.40
65470;DHT22;52067;50.710;14.492;2023-01-28T04:32:24;0.17;86.81
65470;DHT22;52067;50.710;14.492;2023-01-28T04:34:49;0.10;86.75
65470;DHT22;52067;50.710;14.492;2023-01-28T04:37:14;0.20;86.90
65470;DHT22;52067;50.710;14.492;2023-01-28T04:39:40;0.24;86.32
65470;DHT22;52067;50.710;14.492;2023-01-28T04:42:05;0.23;86.17
65470;DHT22;52067;50.710;14.492;2023-01-28T04:44:31;0.31;85.74
65470;DHT22;52067;50.710;14.492;2023-01-28T04:46:56;0.33;85.67
65470;DHT22;52067;50.710;14.492;2023-01-28T04:49:21;0.20;86.77
65470;DHT22;52067;50.710;14.492;2023-01-28T04:51:47;0.20;87.08
65470;DHT22;52067;50.710;14.492;2023-01-28T04:54:12;0.23;86.86
65470;DHT22;52067;50.710;14.492;2023-01-28T04:56:37;0.12;87.17
65470;DHT22;52067;50.710;14.492;2023-01-28T04:59:03;0.22;87.54
65470;DHT22;52067;50.710;14.492;2023-01-28T05:01:28;0.23;87.35
65470;DHT22;52067;50.710;14.492;2023-01-28T05:03:54;0.14;87.38
65470;DHT22;52067;50.710;14.492;2023-01-28T05:06:19;0.12;87.54
65470;DHT22;52067;50.710;14.492;2023-01-28T05:08:45;-0.02;87.67
65470;DHT22;52067;50.710;14.492;2023-01-28T05:11:11;-0.19;87.54
65470;DHT22;52067;50.710;14.492;2023-01-28T05:13:37;-0.23;87.91
65470;DHT22;52067;50.710;14.492;2023-01-28T05:16:02;-0.28;88.11
65470;DHT22;52067;50.710;14.492;2023-01-28T05:18:28;-0.22;88.12
65470;DHT22;52067;50.710;14.492;2023-01-28T05:20:53;-0.19;88.27
65470;DHT22;52067;50.710;14.492;2023-01-28T05:23:18;-0.26;88.54
65470;DHT22;52067;50.710;14.492;2023-01-28T05:25:44;-0.25;88.41
65470;DHT22;52067;50.710;14.492;2023-01-28T05:28:10;-0.32;88.58
65470;DHT22;52067;50.710;14.492;2023-01-28T05:30:37;-0.33;88.88
65470;DHT22;52067;50.710;14.492;2023-01-28T05:33:02;-0.25;88.71
65470;DHT22;52067;50.710;14.492;2023-01-28T05:35:28;-0.33;88.70
65470;DHT22;52067;50.710;14.492;2023-01-28T05:37:53;-0.25;88.94
65470;DHT22;52067;50.710;14.492;2023-01-28T05:40:19;-0.32;88.82
65470;DHT22;52067;50.710;14.492;2023-01-28T05:42:44;-0.22;89.13
65470;DHT22;52067;50.710;14.492;2023-01-28T05:45:10;-0.25;89.26
65470;DHT22;52067;50.710;14.492;2023-01-28T05:47:36;-0.25;89.22
65470;DHT22;52067;50.710;14.492;2023-01-28T05:50:02;-0.23;88.54
65470;DHT22;52067;50.710;14.492;2023-01-28T05:52:27;-0.21;88.70
65470;DHT22;52067;50.710;14.492;2023-01-28T05:54:53;-0.26;89.02
65470;DHT22;52067;50.710;14.492;2023-01-28T05:57:18;-0.19;88.48
65470;DHT22;52067;50.710;14.492;2023-01-28T05:59:43;-0.26;88.92
65470;DHT22;52067;50.710;14.492;2023-01-28T06:02:09;-0.21;88.64
65470;DHT22;52067;50.710;14.492;2023-01-28T06:04:34;-0.08;88.42
65470;DHT22;52067;50.710;14.492;2023-01-28T06:06:59;-0.15;87.98
65470;DHT22;52067;50.710;14.492;2023-01-28T06:09:25;-0.23;88.30
65470;DHT22;52067;50.710;14.492;2023-01-28T06:11:50;-0.11;87.38
65470;DHT22;52067;50.710;14.492;2023-01-28T06:14:16;-0.11;87.18
65470;DHT22;52067;50.710;14.492;2023-01-28T06:16:41;-0.26;87.28
65470;DHT22;52067;50.710;14.492;2023-01-28T06:19:07;-0.28;87.53
65470;DHT22;52067;50.710;14.492;2023-01-28T06:21:32;-0.26;86.69
65470;DHT22;52067;50.710;14.492;2023-01-28T06:23:57;-0.36;86.52
65470;DHT22;52067;50.710;14.492;2023-01-28T06:26:23;-0.40;87.02
65470;DHT22;52067;50.710;14.492;2023-01-28T06:28:48;-0.32;87.00
65470;DHT22;52067;50.710;14.492;2023-01-28T06:31:14;-0.33;86.66
65470;DHT22;52067;50.710;14.492;2023-01-28T06:33:39;-0.39;86.83
65470;DHT22;52067;50.710;14.492;2023-01-28T06:36:05;-0.36;86.75
65470;DHT22;52067;50.710;14.492;2023-01-28T06:38:31;-0.32;86.99
65470;DHT22;52067;50.710;14.492;2023-01-28T06:40:57;-0.35;87.07
65470;DHT22;52067;50.710;14.492;2023-01-28T06:43:23;-0.45;87.26
65470;DHT22;52067;50.710;14.492;2023-01-28T06:45:53;-0.57;87.30
65470;DHT22;52067;50.710;14.492;2023-01-28T06:48:19;-0.60;88.13
65470;DHT22;52067;50.710;14.492;2023-01-28T06:50:46;-0.53;87.80
65470;DHT22;52067;50.710;14.492;2023-01-28T06:53:12;-0.60;87.93
65470;DHT22;52067;50.710;14.492;2023-01-28T06:55:37;-0.56;88.04
65470;DHT22;52067;50.710;14.492;2023-01-28T06:58:02;-0.62;87.65
65470;DHT22;52067;50.710;14.492;2023-01-28T07:00:28;-0.67;87.92
65470;DHT22;52067;50.710;14.492;2023-01-28T07:02:56;-0.65;87.63
65470;DHT22;52067;50.710;14.492;2023-01-28T07:05:22;-0.59;87.95
65470;DHT22;52067;50.710;14.492;2023-01-28T07:07:48;-0.60;88.04
65470;DHT22;52067;50.710;14.492;2023-01-28T07:10:13;-0.55;88.02
65470;DHT22;52067;50.710;14.492;2023-01-28T07:12:38;-0.59;86.96
65470;DHT22;52067;50.710;14.492;2023-01-28T07:15:04;-0.77;88.31
65470;DHT22;52067;50.710;14.492;2023-01-28T07:17:30;-0.84;88.92
65470;DHT22;52067;50.710;14.492;2023-01-28T07:19:55;-0.91;88.62
65470;DHT22;52067;50.710;14.492;2023-01-28T07:22:21;-0.90;89.06
65470;DHT22;52067;50.710;14.492;2023-01-28T07:24:46;-1.03;89.79
65470;DHT22;52067;50.710;14.492;2023-01-28T07:27:11;-1.14;90.09
65470;DHT22;52067;50.710;14.492;2023-01-28T07:29:37;-1.12;90.39
65470;DHT22;52067;50.710;14.492;2023-01-28T07:32:02;-1.08;90.33
65470;DHT22;52067;50.710;14.492;2023-01-28T07:34:29;-1.22;90.10
65470;DHT22;52067;50.710;14.492;2023-01-28T07:36:54;-1.19;89.21
65470;DHT22;52067;50.710;14.492;2023-01-28T07:39:20;-1.28;89.46
65470;DHT22;52067;50.710;14.492;2023-01-28T07:41:45;-1.24;89.31
65470;DHT22;52067;50.710;14.492;2023-01-28T07:44:11;-1.32;89.46
65470;DHT22;52067;50.710;14.492;2023-01-28T07:46:37;-1.28;89.35
65470;DHT22;52067;50.710;14.492;2023-01-28T07:49:02;-1.32;89.30
65470;DHT22;52067;50.710;14.492;2023-01-28T07:51:28;-1.38;88.83
65470;DHT22;52067;50.710;14.492;2023-01-28T07:53:53;-1.42;88.88
65470;DHT22;52067;50.710;14.492;2023-01-28T07:56:19;-1.25;89.23
65470;DHT22;52067;50.710;14.492;2023-01-28T07:58:44;-1.25;87.98
65470;DHT22;52067;50.710;14.492;2023-01-28T08:01:09;-1.17;87.59
65470;DHT22;52067;50.710;14.492;2023-01-28T08:03:35;-1.24;86.74
65470;DHT22;52067;50.710;14.492;2023-01-28T08:06:00;-1.21;86.20
65470;DHT22;52067;50.710;14.492;2023-01-28T08:08:26;-1.19;86.15
65470;DHT22;52067;50.710;14.492;2023-01-28T08:10:52;-1.15;83.29
65470;DHT22;52067;50.710;14.492;2023-01-28T08:13:18;-1.17;83.67
65470;DHT22;52067;50.710;14.492;2023-01-28T08:15:44;-1.24;83.97
65470;DHT22;52067;50.710;14.492;2023-01-28T08:18:11;-1.41;84.16
65470;DHT22;52067;50.710;14.492;2023-01-28T08:20:38;-1.32;84.45
65470;DHT22;52067;50.710;14.492;2023-01-28T08:23:17;-1.30;83.61
65470;DHT22;52067;50.710;14.492;2023-01-28T08:25:44;-1.27;83.25
65470;DHT22;52067;50.710;14.492;2023-01-28T08:28:10;-1.14;83.23
65470;DHT22;52067;50.710;14.492;2023-01-28T08:30:36;-1.35;83.65
65470;DHT22;52067;50.710;14.492;2023-01-28T08:33:04;-1.35;84.33
65470;DHT22;52067;50.710;14.492;2023-01-28T08:35:31;-1.27;83.43
65470;DHT22;52067;50.710;14.492;2023-01-28T08:37:59;-1.31;83.27
65470;DHT22;52067;50.710;14.492;2023-01-28T08:40:25;-1.25;83.16
65470;DHT22;52067;50.710;14.492;2023-01-28T08:42:52;-1.32;82.65
65470;DHT22;52067;50.710;14.492;2023-01-28T08:45:19;-1.15;81.08
65470;DHT22;52067;50.710;14.492;2023-01-28T08:47:57;-1.34;81.86
65470;DHT22;52067;50.710;14.492;2023-01-28T08:50:24;-1.09;81.55
65470;DHT22;52067;50.710;14.492;2023-01-28T08:53:02;-0.97;80.95
65470;DHT22;52067;50.710;14.492;2023-01-28T08:55:28;-0.98;80.62
65470;DHT22;52067;50.710;14.492;2023-01-28T08:57:53;-1.07;82.46
65470;DHT22;52067;50.710;14.492;2023-01-28T09:00:19;-0.94;81.77
65470;DHT22;52067;50.710;14.492;2023-01-28T09:02:45;-0.98;81.01
65470;DHT22;52067;50.710;14.492;2023-01-28T09:05:11;-0.86;80.66
65470;DHT22;52067;50.710;14.492;2023-01-28T09:07:37;-0.73;80.66
65470;DHT22;52067;50.710;14.492;2023-01-28T09:10:04;-1.05;81.85
65470;DHT22;52067;50.710;14.492;2023-01-28T09:12:30;-0.93;81.28
65470;DHT22;52067;50.710;14.492;2023-01-28T09:14:56;-0.86;80.88
65470;DHT22;52067;50.710;14.492;2023-01-28T09:17:22;-0.63;80.15
65470;DHT22;52067;50.710;14.492;2023-01-28T09:19:48;-0.66;79.44
65470;DHT22;52067;50.710;14.492;2023-01-28T09:22:13;-0.67;79.23
65470;DHT22;52067;50.710;14.492;2023-01-28T09:24:38;-0.77;80.50
65470;DHT22;52067;50.710;14.492;2023-01-28T09:27:04;-0.77;79.98
65470;DHT22;52067;50.710;14.492;2023-01-28T09:29:29;-0.79;80.58
65470;DHT22;52067;50.710;14.492;2023-01-28T09:31:54;-0.84;79.14
65470;DHT22;52067;50.710;14.492;2023-01-28T09:34:20;-0.76;79.94
65470;DHT22;52067;50.710;14.492;2023-01-28T09:36:45;-0.74;79.51
65470;DHT22;52067;50.710;14.492;2023-01-28T09:39:10;-0.87;79.78
65470;DHT22;52067;50.710;14.492;2023-01-28T09:44:14;-0.76;82.17
65470;DHT22;52067;50.710;14.492;2023-01-28T09:46:44;-0.76;80.18
65470;DHT22;52067;50.710;14.492;2023-01-28T09:49:26;-0.66;80.82
65470;DHT22;52067;50.710;14.492;2023-01-28T09:51:55;-0.69;81.22
65470;DHT22;52067;50.710;14.492;2023-01-28T09:54:47;-0.81;81.36
65470;DHT22;52067;50.710;14.492;2023-01-28T09:57:20;-1.12;80.78
65470;DHT22;52067;50.710;14.492;2023-01-28T09:59:46;-0.84;81.29
65470;DHT22;52067;50.710;14.492;2023-01-28T10:02:32;-0.76;80.74
65470;DHT22;52067;50.710;14.492;2023-01-28T10:07:35;-0.81;78.96
65470;DHT22;52067;50.710;14.492;2023-01-28T10:10:13;-0.91;81.71
65470;DHT22;52067;50.710;14.492;2023-01-28T10:18:38;-0.49;79.00
65470;DHT22;52067;50.710;14.492;2023-01-28T10:21:35;-0.87;79.39
65470;DHT22;52067;50.710;14.492;2023-01-28T10:24:16;-0.79;78.17
65470;DHT22;52067;50.710;14.492;2023-01-28T10:26:43;-0.56;76.08
65470;DHT22;52067;50.710;14.492;2023-01-28T10:29:16;-0.70;77.73
65470;DHT22;52067;50.710;14.492;2023-01-28T10:31:59;-0.60;78.67
65470;DHT22;52067;50.710;14.492;2023-01-28T10:34:27;-0.65;78.85
65470;DHT22;52067;50.710;14.492;2023-01-28T10:36:52;-0.97;80.67
65470;DHT22;52067;50.710;14.492;2023-01-28T10:39:20;-0.60;79.17
65470;DHT22;52067;50.710;14.492;2023-01-28T10:41:46;-0.52;80.14
65470;DHT22;52067;50.710;14.492;2023-01-28T10:44:16;-0.60;78.53
65470;DHT22;52067;50.710;14.492;2023-01-28T10:46:44;-0.36;77.82
65470;DHT22;52067;50.710;14.492;2023-01-28T10:49:17;-0.48;78.00
65470;DHT22;52067;50.710;14.492;2023-01-28T10:51:46;-0.66;77.14
65470;DHT22;52067;50.710;14.492;2023-01-28T10:54:26;-0.74;75.70
65470;DHT22;52067;50.710;14.492;2023-01-28T10:56:54;-0.96;77.18
65470;DHT22;52067;50.710;14.492;2023-01-28T11:01:54;-0.62;76.99
65470;DHT22;52067;50.710;14.492;2023-01-28T11:04:31;-0.74;75.18
65470;DHT22;52067;50.710;14.492;2023-01-28T11:07:13;-1.24;76.48
65470;DHT22;52067;50.710;14.492;2023-01-28T11:09:45;-0.83;75.68
65470;DHT22;52067;50.710;14.492;2023-01-28T11:12:12;-0.80;77.96
65470;DHT22;52067;50.710;14.492;2023-01-28T11:14:48;-1.17;77.98
65470;DHT22;52067;50.710;14.492;2023-01-28T11:17:15;-1.18;77.11
65470;DHT22;52067;50.710;14.492;2023-01-28T11:19:41;-0.83;77.70
65470;DHT22;52067;50.710;14.492;2023-01-28T11:22:23;-0.83;78.76
65470;DHT22;52067;50.710;14.492;2023-01-28T11:24:50;-0.87;79.07
65470;DHT22;52067;50.710;14.492;2023-01-28T11:27:17;-0.69;77.68
65470;DHT22;52067;50.710;14.492;2023-01-28T11:29:45;-0.60;76.97
65470;DHT22;52067;50.710;14.492;2023-01-28T11:32:24;-0.69;77.69
65470;DHT22;52067;50.710;14.492;2023-01-28T11:34:51;-1.01;78.73
65470;DHT22;52067;50.710;14.492;2023-01-28T11:37:20;-1.11;79.68
65470;DHT22;52067;50.710;14.492;2023-01-28T11:39:47;-0.98;79.58
65470;DHT22;52067;50.710;14.492;2023-01-28T11:42:19;-0.86;77.36
65470;DHT22;52067;50.710;14.492;2023-01-28T11:44:46;-0.96;75.50
65470;DHT22;52067;50.710;14.492;2023-01-28T11:48:11;-1.14;76.80
65470;DHT22;52067;50.710;14.492;2023-01-28T11:50:46;-1.59;78.61
65470;DHT22;52067;50.710;14.492;2023-01-28T11:58:20;-1.63;78.20
65470;DHT22;52067;50.710;14.492;2023-01-28T12:06:51;-1.22;75.96
65470;DHT22;52067;50.710;14.492;2023-01-28T12:18:02;-1.97;79.29
65470;DHT22;52067;50.710;14.492;2023-01-28T12:20:41;-1.91;78.92
65470;DHT22;52067;50.710;14.492;2023-01-28T12:26:06;-1.87;78.52
65470;DHT22;52067;50.710;14.492;2023-01-28T12:36:34;-1.72;78.18
65470;DHT22;52067;50.710;14.492;2023-01-28T12:39:42;-1.65;76.77
65470;DHT22;52067;50.710;14.492;2023-01-28T12:42:18;-1.80;78.30
65470;DHT22;52067;50.710;14.492;2023-01-28T12:44:53;-1.90;76.96
65470;DHT22;52067;50.710;14.492;2023-01-28T12:47:27;-1.79;77.12
65470;DHT22;52067;50.710;14.492;2023-01-28T12:50:04;-1.82;78.23
65470;DHT22;52067;50.710;14.492;2023-01-28T12:52:44;-1.59;78.37
65470;DHT22;52067;50.710;14.492;2023-01-28T12:57:42;-1.45;75.55
65470;DHT22;52067;50.710;14.492;2023-01-28T13:00:33;-1.75;77.08
65470;DHT22;52067;50.710;14.492;2023-01-28T13:03:19;-1.80;76.47
65470;DHT22;52067;50.710;14.492;2023-01-28T13:05:50;-1.93;77.04
65470;DHT22;52067;50.710;14.492;2023-01-28T13:08:24;-1.93;76.38
65470;DHT22;52067;50.710;14.492;2023-01-28T13:10:50;-1.87;76.41
65470;DHT22;52067;50.710;14.492;2023-01-28T13:13:29;-1.96;76.77
65470;DHT22;52067;50.710;14.492;2023-01-28T13:15:56;-2.13;76.81
65470;DHT22;52067;50.710;14.492;2023-01-28T13:21:03;-2.17;77.14
65470;DHT22;52067;50.710;14.492;2023-01-28T13:25:56;-2.06;76.59
65470;DHT22;52067;50.710;14.492;2023-01-28T13:28:33;-2.11;76.46
65470;DHT22;52067;50.710;14.492;2023-01-28T13:31:07;-2.10;75.99
65470;DHT22;52067;50.710;14.492;2023-01-28T13:33:38;-2.30;77.11
65470;DHT22;52067;50.710;14.492;2023-01-28T13:39:18;-2.21;75.38
65470;DHT22;52067;50.710;14.492;2023-01-28T13:41:46;-2.24;77.53
65470;DHT22;52067;50.710;14.492;2023-01-28T13:49:43;-2.41;77.19
65470;DHT22;52067;50.710;14.492;2023-01-28T13:54:59;-2.41;77.52
65470;DHT22;52067;50.710;14.492;2023-01-28T14:03:30;-2.40;76.96
65470;DHT22;52067;50.710;14.492;2023-01-28T14:09:10;-2.23;75.21
65470;DHT22;52067;50.710;14.492;2023-01-28T14:17:38;-2.40;77.40
65470;DHT22;52067;50.710;14.492;2023-01-28T14:22:40;-2.35;77.41
65470;DHT22;52067;50.710;14.492;2023-01-28T14:25:11;-2.33;76.98
65470;DHT22;52067;50.710;14.492;2023-01-28T14:27:42;-2.23;76.71
65470;DHT22;52067;50.710;14.492;2023-01-28T14:32:48;-2.28;77.65
65470;DHT22;52067;50.710;14.492;2023-01-28T14:35:18;-2.35;78.46
65470;DHT22;52067;50.710;14.492;2023-01-28T14:37:44;-2.27;77.45
65470;DHT22;52067;50.710;14.492;2023-01-28T14:40:16;-2.31;76.98
65470;DHT22;52067;50.710;14.492;2023-01-28T14:42:45;-2.30;77.47
65470;DHT22;52067;50.710;14.492;2023-01-28T14:58:51;-2.46;77.44
65470;DHT22;52067;50.710;14.492;2023-01-28T15:01:26;-2.46;77.40
65470;DHT22;52067;50.710;14.492;2023-01-28T15:03:53;-2.38;77.39
65470;DHT22;52067;50.710;14.492;2023-01-28T15:06:22;-2.34;77.61
65470;DHT22;52067;50.710;14.492;2023-01-28T15:08:51;-2.31;77.18
65470;DHT22;52067;50.710;14.492;2023-01-28T15:11:20;-2.38;76.85
65470;DHT22;52067;50.710;14.492;2023-01-28T15:13:50;-2.44;76.87
65470;DHT22;52067;50.710;14.492;2023-01-28T15:16:19;-2.45;76.03
65470;DHT22;52067;50.710;14.492;2023-01-28T15:18:45;-2.38;76.37
65470;DHT22;52067;50.710;14.492;2023-01-28T15:21:12;-2.33;76.20
65470;DHT22;52067;50.710;14.492;2023-01-28T15:23:39;-2.40;76.81
65470;DHT22;52067;50.710;14.492;2023-01-28T15:26:18;-2.45;78.05
65470;DHT22;52067;50.710;14.492;2023-01-28T15:28:45;-2.40;77.28
65470;DHT22;52067;50.710;14.492;2023-01-28T15:31:23;-2.40;78.11
65470;DHT22;52067;50.710;14.492;2023-01-28T15:34:08;-2.34;78.49
65470;DHT22;52067;50.710;14.492;2023-01-28T15:36:35;-2.30;77.42
65470;DHT22;52067;50.710;14.492;2023-01-28T15:39:00;-2.35;78.18
65470;DHT22;52067;50.710;14.492;2023-01-28T15:41:38;-2.34;77.84
65470;DHT22;52067;50.710;14.492;2023-01-28T15:44:06;-2.41;77.98
65470;DHT22;52067;50.710;14.492;2023-01-28T15:46:32;-2.38;77.34
65470;DHT22;52067;50.710;14.492;2023-01-28T15:49:01;-2.30;76.82
65470;DHT22;52067;50.710;14.492;2023-01-28T15:51:31;-2.46;78.77
65470;DHT22;52067;50.710;14.492;2023-01-28T15:54:04;-2.40;78.61
65470;DHT22;52067;50.710;14.492;2023-01-28T15:56:30;-2.42;77.72
65470;DHT22;52067;50.710;14.492;2023-01-28T15:59:16;-2.45;77.74
65470;DHT22;52067;50.710;14.492;2023-01-28T16:01:42;-2.41;77.71
65470;DHT22;52067;50.710;14.492;2023-01-28T16:04:25;-2.48;77.41
65470;DHT22;52067;50.710;14.492;2023-01-28T16:06:51;-2.45;77.10
65470;DHT22;52067;50.710;14.492;2023-01-28T16:09:29;-2.55;77.52
65470;DHT22;52067;50.710;14.492;2023-01-28T16:12:02;-2.49;77.65
65470;DHT22;52067;50.710;14.492;2023-01-28T16:14:41;-2.40;77.02
65470;DHT22;52067;50.710;14.492;2023-01-28T16:17:07;-2.45;77.80
65470;DHT22;52067;50.710;14.492;2023-01-28T16:19:42;-2.38;77.82
65470;DHT22;52067;50.710;14.492;2023-01-28T16:22:18;-2.49;78.00
65470;DHT22;52067;50.710;14.492;2023-01-28T16:24:49;-2.38;77.88
65470;DHT22;52067;50.710;14.492;2023-01-28T16:27:23;-2.31;76.88
65470;DHT22;52067;50.710;14.492;2023-01-28T16:29:48;-2.37;77.29
65470;DHT22;52067;50.710;14.492;2023-01-28T16:34:56;-2.17;77.93
65470;DHT22;52067;50.710;14.492;2023-01-28T16:37:21;-2.30;77.52
65470;DHT22;52067;50.710;14.492;2023-01-28T16:39:47;-2.20;77.33
65470;DHT22;52067;50.710;14.492;2023-01-28T16:42:13;-2.31;77.56
65470;DHT22;52067;50.710;14.492;2023-01-28T16:44:38;-2.25;77.03
65470;DHT22;52067;50.710;14.492;2023-01-28T16:47:04;-2.31;76.46
65470;DHT22;52067;50.710;14.492;2023-01-28T16:49:29;-2.20;76.44
65470;DHT22;52067;50.710;14.492;2023-01-28T16:51:55;-2.18;75.88
65470;DHT22;52067;50.710;14.492;2023-01-28T16:54:21;-2.17;77.39
65470;DHT22;52067;50.710;14.492;2023-01-28T16:56:46;-2.30;77.23
65470;DHT22;52067;50.710;14.492;2023-01-28T16:59:13;-2.27;76.27
65470;DHT22;52067;50.710;14.492;2023-01-28T17:01:39;-2.25;76.80
65470;DHT22;52067;50.710;14.492;2023-01-28T17:04:05;-2.48;76.29
65470;DHT22;52067;50.710;14.492;2023-01-28T17:06:34;-2.33;76.86
65470;DHT22;52067;50.710;14.492;2023-01-28T17:09:06;-2.34;77.13
65470;DHT22;52067;50.710;14.492;2023-01-28T17:11:32;-2.18;77.04
65470;DHT22;52067;50.710;14.492;2023-01-28T17:13:58;-2.21;77.85
65470;DHT22;52067;50.710;14.492;2023-01-28T17:16:24;-2.14;75.42
65470;DHT22;52067;50.710;14.492;2023-01-28T17:18:50;-2.03;75.87
65470;DHT22;52067;50.710;14.492;2023-01-28T17:21:16;-1.98;76.39
65470;DHT22;52067;50.710;14.492;2023-01-28T17:23:41;-1.94;74.79
65470;DHT22;52067;50.710;14.492;2023-01-28T17:26:08;-1.98;76.17
65470;DHT22;52067;50.710;14.492;2023-01-28T17:28:34;-1.89;75.15
65470;DHT22;52067;50.710;14.492;2023-01-28T17:31:04;-2.01;75.08
65470;DHT22;52067;50.710;14.492;2023-01-28T17:33:30;-2.14;74.76